sensor_id;sensor_type;location;lat;lon;timestamp;P1;durP1;ratioP1;P2;durP2;ratioP2
18274;SDS011;19470;49.322;7.218;2022-12-20T00:01:43;2.55;;;2.00;;
18274;SDS011;19470;49.322;7.218;2022-12-20T00:04:11;2.63;;;2.05;;
18274;SDS011;19470;49.322;7.218;2022-12-20T00:06:38;2.20;;;1.92;;
18274;SDS011;19470;49.322;7.218;2022-12-20T00:09:08;3.83;;;2.05;;
18274;SDS011;19470;49.322;7.218;2022-12-20T00:11:37;3.30;;;2.00;;
18274;SDS011;19470;49.322;7.218;2022-12-20T00:14:05;4.85;;;1.77;;
18274;SDS011;19470;49.322;7.218;2022-12-20T00:16:31;2.70;;;2.10;;
18274;SDS011;19470;49.322;7.218;2022-12-20T00:18:59;1.83;;;1.73;;
18274;SDS011;19470;49.322;7.218;2022-12-20T00:21:29;3.78;;;2.20;;
18274;SDS011;19470;49.322;7.218;2022-12-20T00:23:56;4.63;;;2.00;;
18274;SDS011;19470;49.322;7.218;2022-12-20T00:26:24;3.88;;;1.90;;
18274;SDS011;19470;49.322;7.218;2022-12-20T00:28:52;3.78;;;1.90;;
18274;SDS011;19470;49.322;7.218;2022-12-20T00:31:19;3.15;;;1.83;;
18274;SDS011;19470;49.322;7.218;2022-12-20T00:33:48;3.83;;;1.95;;
18274;SDS011;19470;49.322;7.218;2022-12-20T00:36:16;2.35;;;2.00;;
18274;SDS011;19470;49.322;7.218;2022-12-20T00:38:45;3.53;;;2.42;;
18274;SDS011;19470;49.322;7.218;2022-12-20T00:41:12;3.33;;;2.15;;
18274;SDS011;19470;49.322;7.218;2022-12-20T00:43:40;2.38;;;2.17;;
18274;SDS011;19470;49.322;7.218;2022-12-20T00:46:07;2.35;;;2.10;;
18274;SDS011;19470;49.322;7.218;2022-12-20T00:48:35;6.18;;;2.28;;
18274;SDS011;19470;49.322;7.218;2022-12-20T00:51:03;3.85;;;1.77;;
18274;SDS011;19470;49.322;7.218;2022-12-20T00:53:32;4.75;;;1.60;;
18274;SDS011;19470;49.322;7.218;2022-12-20T00:56:01;3.83;;;1.90;;
18274;SDS011;19470;49.322;7.218;2022-12-20T00:58:28;2.72;;;1.70;;
18274;SDS011;19470;49.322;7.218;2022-12-20T01:00:56;2.20;;;1.70;;
18274;SDS011;19470;49.322;7.218;2022-12-20T01:03:23;3.33;;;1.42;;
18274;SDS011;19470;49.322;7.218;2022-12-20T01:05:50;3.88;;;1.55;;
18274;SDS011;19470;49.322;7.218;2022-12-20T01:08:17;1.88;;;1.55;;
18274;SDS011;19470;49.322;7.218;2022-12-20T01:10:44;4.90;;;2.17;;
18274;SDS011;19470;49.322;7.218;2022-12-20T01:13:12;5.90;;;1.88;;
18274;SDS011;19470;49.322;7.218;2022-12-20T01:15:39;3.13;;;1.60;;
18274;SDS011;19470;49.322;7.218;2022-12-20T01:18:05;4.63;;;2.08;;
18274;SDS011;19470;49.322;7.218;2022-12-20T01:20:32;5.88;;;2.00;;
18274;SDS011;19470;49.322;7.218;2022-12-20T01:22:58;3.42;;;1.48;;
18274;SDS011;19470;49.322;7.218;2022-12-20T01:25:25;3.92;;;1.63;;
18274;SDS011;19470;49.322;7.218;2022-12-20T01:27:51;5.78;;;1.75;;
18274;SDS011;19470;49.322;7.218;2022-12-20T01:30:19;2.47;;;1.50;;
18274;SDS011;19470;49.322;7.218;2022-12-20T01:32:45;1.60;;;1.40;;
18274;SDS011;19470;49.322;7.218;2022-12-20T01:35:12;1.98;;;1.70;;
18274;SDS011;19470;49.322;7.218;2022-12-20T01:37:40;3.72;;;1.60;;
18274;SDS011;19470;49.322;7.218;2022-12-20T01:40:07;4.70;;;1.80;;
18274;SDS011;19470;49.322;7.218;2022-12-20T01:42:34;4.97;;;1.70;;
18274;SDS011;19470;49.322;7.218;2022-12-20T01:45:01;2.10;;;1.27;;
18274;SDS011;19470;49.322;7.218;2022-12-20T01:47:34;6.15;;;1.80;;
18274;SDS011;19470;49.322;7.218;2022-12-20T01:50:03;3.22;;;1.40;;
18274;SDS011;19470;49.322;7.218;2022-12-20T01:52:32;2.72;;;1.30;;
18274;SDS011;19470;49.322;7.218;2022-12-20T01:55:05;4.13;;;1.98;;
18274;SDS011;19470;49.322;7.218;2022-12-20T01:57:37;2.17;;;1.52;;
18274;SDS011;19470;49.322;7.218;2022-12-20T02:00:09;4.20;;;1.45;;
18274;SDS011;19470;49.322;7.218;2022-12-20T02:02:38;1.40;;;1.30;;
18274;SDS011;19470;49.322;7.218;2022-12-20T02:05:05;1.83;;;1.58;;
18274;SDS011;19470;49.322;7.218;2022-12-20T02:07:33;3.40;;;2.40;;
18274;SDS011;19470;49.322;7.218;2022-12-20T02:10:03;2.35;;;1.65;;
18274;SDS011;19470;49.322;7.218;2022-12-20T02:12:33;3.13;;;1.75;;
18274;SDS011;19470;49.322;7.218;2022-12-20T02:15:10;2.42;;;1.90;;
18274;SDS011;19470;49.322;7.218;2022-12-20T02:17:50;4.03;;;1.80;;
18274;SDS011;19470;49.322;7.218;2022-12-20T02:23:39;2.45;;;1.65;;
18274;SDS011;19470;49.322;7.218;2022-12-20T02:26:31;7.55;;;1.70;;
18274;SDS011;19470;49.322;7.218;2022-12-20T02:29:19;3.15;;;1.40;;
18274;SDS011;19470;49.322;7.218;2022-12-20T02:31:53;6.90;;;1.65;;
18274;SDS011;19470;49.322;7.218;2022-12-20T02:34:26;3.58;;;1.65;;
18274;SDS011;19470;49.322;7.218;2022-12-20T02:36:54;4.43;;;1.50;;
18274;SDS011;19470;49.322;7.218;2022-12-20T02:39:21;4.18;;;1.70;;
18274;SDS011;19470;49.322;7.218;2022-12-20T02:41:50;4.05;;;1.70;;
18274;SDS011;19470;49.322;7.218;2022-12-20T02:44:20;2.63;;;1.70;;
18274;SDS011;19470;49.322;7.218;2022-12-20T02:47:11;2.90;;;1.50;;
18274;SDS011;19470;49.322;7.218;2022-12-20T02:49:41;5.55;;;1.63;;
18274;SDS011;19470;49.322;7.218;2022-12-20T02:52:09;3.00;;;1.50;;
18274;SDS011;19470;49.322;7.218;2022-12-20T02:54:38;2.45;;;1.50;;
18274;SDS011;19470;49.322;7.218;2022-12-20T02:57:07;3.85;;;1.73;;
18274;SDS011;19470;49.322;7.218;2022-12-20T02:59:38;3.83;;;2.00;;
18274;SDS011;19470;49.322;7.218;2022-12-20T03:02:11;5.35;;;1.77;;
18274;SDS011;19470;49.322;7.218;2022-12-20T03:04:38;5.30;;;1.92;;
18274;SDS011;19470;49.322;7.218;2022-12-20T03:07:08;7.38;;;1.80;;
18274;SDS011;19470;49.322;7.218;2022-12-20T03:09:37;2.97;;;2.08;;
18274;SDS011;19470;49.322;7.218;2022-12-20T03:12:06;2.35;;;1.85;;
18274;SDS011;19470;49.322;7.218;2022-12-20T03:14:33;3.10;;;1.90;;
18274;SDS011;19470;49.322;7.218;2022-12-20T03:17:00;7.60;;;2.25;;
18274;SDS011;19470;49.322;7.218;2022-12-20T03:19:28;3.50;;;2.10;;
18274;SDS011;19470;49.322;7.218;2022-12-20T03:21:55;4.88;;;2.35;;
18274;SDS011;19470;49.322;7.218;2022-12-20T03:24:22;3.15;;;2.33;;
18274;SDS011;19470;49.322;7.218;2022-12-20T03:26:49;2.80;;;2.38;;
18274;SDS011;19470;49.322;7.218;2022-12-20T03:29:16;2.80;;;2.15;;
18274;SDS011;19470;49.322;7.218;2022-12-20T03:31:42;2.13;;;1.85;;
18274;SDS011;19470;49.322;7.218;2022-12-20T03:34:09;8.38;;;2.25;;
18274;SDS011;19470;49.322;7.218;2022-12-20T03:36:37;4.63;;;2.53;;
18274;SDS011;19470;49.322;7.218;2022-12-20T03:39:03;3.78;;;1.80;;
18274;SDS011;19470;49.322;7.218;2022-12-20T03:41:30;2.13;;;1.42;;
18274;SDS011;19470;49.322;7.218;2022-12-20T03:43:56;2.67;;;1.63;;
18274;SDS011;19470;49.322;7.218;2022-12-20T03:46:23;2.92;;;1.95;;
18274;SDS011;19470;49.322;7.218;2022-12-20T03:48:50;2.58;;;2.00;;
18274;SDS011;19470;49.322;7.218;2022-12-20T03:51:17;2.05;;;1.85;;
18274;SDS011;19470;49.322;7.218;2022-12-20T03:53:44;2.80;;;1.95;;
18274;SDS011;19470;49.322;7.218;2022-12-20T03:56:11;2.78;;;1.80;;
18274;SDS011;19470;49.322;7.218;2022-12-20T03:58:38;1.58;;;1.48;;
18274;SDS011;19470;49.322;7.218;2022-12-20T04:01:15;2.30;;;2.10;;
18274;SDS011;19470;49.322;7.218;2022-12-20T04:03:42;4.15;;;3.10;;
18274;SDS011;19470;49.322;7.218;2022-12-20T04:06:09;3.88;;;2.20;;
18274;SDS011;19470;49.322;7.218;2022-12-20T04:08:35;2.78;;;1.98;;
18274;SDS011;19470;49.322;7.218;2022-12-20T04:11:03;3.45;;;2.63;;
18274;SDS011;19470;49.322;7.218;2022-12-20T04:13:42;4.03;;;2.15;;
18274;SDS011;19470;49.322;7.218;2022-12-20T04:16:08;2.15;;;1.60;;
18274;SDS011;19470;49.322;7.218;2022-12-20T04:18:35;4.80;;;2.00;;
18274;SDS011;19470;49.322;7.218;2022-12-20T04:21:02;4.75;;;2.35;;
18274;SDS011;19470;49.322;7.218;2022-12-20T04:23:31;3.33;;;2.53;;
18274;SDS011;19470;49.322;7.218;2022-12-20T04:25:58;6.35;;;3.30;;
18274;SDS011;19470;49.322;7.218;2022-12-20T04:28:25;4.93;;;3.83;;
18274;SDS011;19470;49.322;7.218;2022-12-20T04:30:52;4.25;;;2.28;;
18274;SDS011;19470;49.322;7.218;2022-12-20T04:33:18;3.08;;;2.88;;
18274;SDS011;19470;49.322;7.218;2022-12-20T04:35:45;4.50;;;4.10;;
18274;SDS011;19470;49.322;7.218;2022-12-20T04:38:11;6.63;;;5.32;;
18274;SDS011;19470;49.322;7.218;2022-12-20T04:40:38;16.80;;;15.05;;
18274;SDS011;19470;49.322;7.218;2022-12-20T04:43:04;7.53;;;6.00;;
18274;SDS011;19470;49.322;7.218;2022-12-20T04:45:32;5.10;;;4.45;;
18274;SDS011;19470;49.322;7.218;2022-12-20T04:47:59;5.75;;;4.82;;
18274;SDS011;19470;49.322;7.218;2022-12-20T04:50:25;5.43;;;4.95;;
18274;SDS011;19470;49.322;7.218;2022-12-20T04:52:52;5.30;;;4.97;;
18274;SDS011;19470;49.322;7.218;2022-12-20T04:55:36;5.18;;;4.88;;
18274;SDS011;19470;49.322;7.218;2022-12-20T04:58:03;8.18;;;4.95;;
18274;SDS011;19470;49.322;7.218;2022-12-20T05:00:30;6.47;;;5.95;;
18274;SDS011;19470;49.322;7.218;2022-12-20T05:02:59;5.78;;;4.60;;
18274;SDS011;19470;49.322;7.218;2022-12-20T05:05:26;7.03;;;4.50;;
18274;SDS011;19470;49.322;7.218;2022-12-20T05:07:53;4.78;;;4.18;;
18274;SDS011;19470;49.322;7.218;2022-12-20T05:10:20;4.60;;;4.28;;
18274;SDS011;19470;49.322;7.218;2022-12-20T05:12:47;7.78;;;5.57;;
18274;SDS011;19470;49.322;7.218;2022-12-20T05:15:13;5.00;;;4.50;;
18274;SDS011;19470;49.322;7.218;2022-12-20T05:17:40;5.53;;;5.10;;
18274;SDS011;19470;49.322;7.218;2022-12-20T05:20:08;5.55;;;4.15;;
18274;SDS011;19470;49.322;7.218;2022-12-20T05:22:36;4.97;;;4.68;;
18274;SDS011;19470;49.322;7.218;2022-12-20T05:25:22;6.82;;;5.38;;
18274;SDS011;19470;49.322;7.218;2022-12-20T05:28:06;9.48;;;8.63;;
18274;SDS011;19470;49.322;7.218;2022-12-20T05:30:33;4.93;;;4.03;;
18274;SDS011;19470;49.322;7.218;2022-12-20T05:33:00;4.30;;;4.00;;
18274;SDS011;19470;49.322;7.218;2022-12-20T05:35:27;3.35;;;3.05;;
18274;SDS011;19470;49.322;7.218;2022-12-20T05:37:54;3.78;;;3.15;;
18274;SDS011;19470;49.322;7.218;2022-12-20T05:40:20;10.48;;;6.32;;
18274;SDS011;19470;49.322;7.218;2022-12-20T05:42:47;4.60;;;4.13;;
18274;SDS011;19470;49.322;7.218;2022-12-20T05:45:13;3.20;;;2.90;;
18274;SDS011;19470;49.322;7.218;2022-12-20T05:47:40;5.05;;;3.90;;
18274;SDS011;19470;49.322;7.218;2022-12-20T05:50:07;4.95;;;3.05;;
18274;SDS011;19470;49.322;7.218;2022-12-20T05:52:36;2.08;;;1.80;;
18274;SDS011;19470;49.322;7.218;2022-12-20T05:55:03;4.00;;;2.45;;
18274;SDS011;19470;49.322;7.218;2022-12-20T05:57:29;3.72;;;2.13;;
18274;SDS011;19470;49.322;7.218;2022-12-20T05:59:56;4.90;;;1.83;;
18274;SDS011;19470;49.322;7.218;2022-12-20T06:02:22;3.08;;;1.80;;
18274;SDS011;19470;49.322;7.218;2022-12-20T06:04:49;2.88;;;1.98;;
18274;SDS011;19470;49.322;7.218;2022-12-20T06:07:15;2.65;;;1.70;;
18274;SDS011;19470;49.322;7.218;2022-12-20T06:09:44;4.60;;;1.90;;
18274;SDS011;19470;49.322;7.218;2022-12-20T06:12:11;2.88;;;1.63;;
18274;SDS011;19470;49.322;7.218;2022-12-20T06:14:38;2.97;;;1.80;;
18274;SDS011;19470;49.322;7.218;2022-12-20T06:17:04;4.32;;;2.35;;
18274;SDS011;19470;49.322;7.218;2022-12-20T06:19:32;4.15;;;1.85;;
18274;SDS011;19470;49.322;7.218;2022-12-20T06:21:58;3.47;;;1.80;;
18274;SDS011;19470;49.322;7.218;2022-12-20T06:24:26;6.15;;;2.20;;
18274;SDS011;19470;49.322;7.218;2022-12-20T06:26:53;4.68;;;1.92;;
18274;SDS011;19470;49.322;7.218;2022-12-20T06:29:20;3.63;;;1.67;;
18274;SDS011;19470;49.322;7.218;2022-12-20T06:31:48;3.90;;;1.50;;
18274;SDS011;19470;49.322;7.218;2022-12-20T06:34:15;6.43;;;1.75;;
18274;SDS011;19470;49.322;7.218;2022-12-20T06:36:41;4.13;;;1.65;;
18274;SDS011;19470;49.322;7.218;2022-12-20T06:39:08;3.88;;;1.90;;
18274;SDS011;19470;49.322;7.218;2022-12-20T06:41:35;2.33;;;1.50;;
18274;SDS011;19470;49.322;7.218;2022-12-20T06:44:03;3.80;;;2.38;;
18274;SDS011;19470;49.322;7.218;2022-12-20T06:46:30;4.95;;;1.88;;
18274;SDS011;19470;49.322;7.218;2022-12-20T06:48:56;3.55;;;1.55;;
18274;SDS011;19470;49.322;7.218;2022-12-20T06:51:23;2.38;;;1.50;;
18274;SDS011;19470;49.322;7.218;2022-12-20T06:53:50;3.67;;;1.42;;
18274;SDS011;19470;49.322;7.218;2022-12-20T06:56:17;2.50;;;1.67;;
18274;SDS011;19470;49.322;7.218;2022-12-20T06:58:44;2.38;;;1.63;;
18274;SDS011;19470;49.322;7.218;2022-12-20T07:01:12;5.30;;;1.58;;
18274;SDS011;19470;49.322;7.218;2022-12-20T07:03:38;1.88;;;1.38;;
18274;SDS011;19470;49.322;7.218;2022-12-20T07:06:05;2.55;;;1.60;;
18274;SDS011;19470;49.322;7.218;2022-12-20T07:08:32;29.90;;;17.20;;
18274;SDS011;19470;49.322;7.218;2022-12-20T07:11:02;3.90;;;1.75;;
18274;SDS011;19470;49.322;7.218;2022-12-20T07:13:30;2.20;;;2.00;;
18274;SDS011;19470;49.322;7.218;2022-12-20T07:15:57;2.88;;;1.67;;
18274;SDS011;19470;49.322;7.218;2022-12-20T07:18:25;6.25;;;2.08;;
18274;SDS011;19470;49.322;7.218;2022-12-20T07:20:52;7.80;;;2.53;;
18274;SDS011;19470;49.322;7.218;2022-12-20T07:23:18;3.47;;;3.13;;
18274;SDS011;19470;49.322;7.218;2022-12-20T07:25:51;5.13;;;3.22;;
18274;SDS011;19470;49.322;7.218;2022-12-20T07:28:18;7.63;;;4.43;;
18274;SDS011;19470;49.322;7.218;2022-12-20T07:30:45;5.35;;;4.05;;
18274;SDS011;19470;49.322;7.218;2022-12-20T07:33:11;4.53;;;4.22;;
18274;SDS011;19470;49.322;7.218;2022-12-20T07:35:39;5.80;;;5.32;;
18274;SDS011;19470;49.322;7.218;2022-12-20T07:38:05;6.60;;;5.15;;
18274;SDS011;19470;49.322;7.218;2022-12-20T07:40:32;5.85;;;5.43;;
18274;SDS011;19470;49.322;7.218;2022-12-20T07:42:58;5.97;;;5.57;;
18274;SDS011;19470;49.322;7.218;2022-12-20T07:45:25;6.63;;;6.03;;
18274;SDS011;19470;49.322;7.218;2022-12-20T07:47:51;9.60;;;8.57;;
18274;SDS011;19470;49.322;7.218;2022-12-20T07:50:18;6.55;;;5.90;;
18274;SDS011;19470;49.322;7.218;2022-12-20T07:52:46;5.30;;;4.90;;
18274;SDS011;19470;49.322;7.218;2022-12-20T07:55:14;5.95;;;5.43;;
18274;SDS011;19470;49.322;7.218;2022-12-20T07:57:43;6.00;;;5.63;;
18274;SDS011;19470;49.322;7.218;2022-12-20T08:00:13;8.48;;;7.78;;
18274;SDS011;19470;49.322;7.218;2022-12-20T08:02:43;9.32;;;8.52;;
18274;SDS011;19470;49.322;7.218;2022-12-20T08:05:15;8.35;;;7.75;;
18274;SDS011;19470;49.322;7.218;2022-12-20T08:07:42;45.17;;;40.95;;
18274;SDS011;19470;49.322;7.218;2022-12-20T08:10:13;6.50;;;5.32;;
18274;SDS011;19470;49.322;7.218;2022-12-20T08:12:43;7.32;;;6.00;;
18274;SDS011;19470;49.322;7.218;2022-12-20T08:15:12;10.60;;;9.60;;
18274;SDS011;19470;49.322;7.218;2022-12-20T08:17:39;6.63;;;4.90;;
18274;SDS011;19470;49.322;7.218;2022-12-20T08:20:06;8.93;;;8.02;;
18274;SDS011;19470;49.322;7.218;2022-12-20T08:22:34;7.38;;;6.95;;
18274;SDS011;19470;49.322;7.218;2022-12-20T08:25:00;6.93;;;6.43;;
18274;SDS011;19470;49.322;7.218;2022-12-20T08:27:30;8.63;;;8.05;;
18274;SDS011;19470;49.322;7.218;2022-12-20T08:29:56;5.93;;;5.43;;
18274;SDS011;19470;49.322;7.218;2022-12-20T08:32:23;5.88;;;5.38;;
18274;SDS011;19470;49.322;7.218;2022-12-20T08:34:49;7.30;;;6.68;;
18274;SDS011;19470;49.322;7.218;2022-12-20T08:37:17;11.50;;;10.70;;
18274;SDS011;19470;49.322;7.218;2022-12-20T08:39:44;5.53;;;5.07;;
18274;SDS011;19470;49.322;7.218;2022-12-20T08:42:11;7.68;;;7.03;;
18274;SDS011;19470;49.322;7.218;2022-12-20T08:44:39;7.90;;;7.20;;
18274;SDS011;19470;49.322;7.218;2022-12-20T08:47:06;8.45;;;7.80;;
18274;SDS011;19470;49.322;7.218;2022-12-20T08:49:32;6.95;;;6.45;;
18274;SDS011;19470;49.322;7.218;2022-12-20T08:51:59;39.33;;;36.97;;
18274;SDS011;19470;49.322;7.218;2022-12-20T08:54:25;10.52;;;9.90;;
18274;SDS011;19470;49.322;7.218;2022-12-20T08:56:52;25.75;;;24.23;;
18274;SDS011;19470;49.322;7.218;2022-12-20T08:59:18;15.43;;;14.23;;
18274;SDS011;19470;49.322;7.218;2022-12-20T09:01:46;15.95;;;14.95;;
18274;SDS011;19470;49.322;7.218;2022-12-20T09:04:13;14.10;;;13.30;;
18274;SDS011;19470;49.322;7.218;2022-12-20T09:06:40;83.15;;;78.35;;
18274;SDS011;19470;49.322;7.218;2022-12-20T09:09:06;20.48;;;19.05;;
18274;SDS011;19470;49.322;7.218;2022-12-20T09:11:33;19.27;;;18.10;;
18274;SDS011;19470;49.322;7.218;2022-12-20T09:13:59;27.48;;;25.65;;
18274;SDS011;19470;49.322;7.218;2022-12-20T09:16:27;21.58;;;20.27;;
18274;SDS011;19470;49.322;7.218;2022-12-20T09:18:56;22.15;;;20.73;;
18274;SDS011;19470;49.322;7.218;2022-12-20T09:21:24;91.65;;;84.38;;
18274;SDS011;19470;49.322;7.218;2022-12-20T09:23:52;77.65;;;72.63;;
18274;SDS011;19470;49.322;7.218;2022-12-20T09:26:20;53.80;;;50.47;;
18274;SDS011;19470;49.322;7.218;2022-12-20T09:28:47;57.25;;;53.90;;
18274;SDS011;19470;49.322;7.218;2022-12-20T09:31:15;68.25;;;64.25;;
18274;SDS011;19470;49.322;7.218;2022-12-20T09:33:43;57.65;;;54.47;;
18274;SDS011;19470;49.322;7.218;2022-12-20T09:36:11;43.05;;;40.55;;
18274;SDS011;19470;49.322;7.218;2022-12-20T09:38:39;48.83;;;45.92;;
18274;SDS011;19470;49.322;7.218;2022-12-20T09:41:07;36.05;;;34.00;;
18274;SDS011;19470;49.322;7.218;2022-12-20T09:43:41;73.55;;;68.68;;
18274;SDS011;19470;49.322;7.218;2022-12-20T09:46:09;77.57;;;72.70;;
18274;SDS011;19470;49.322;7.218;2022-12-20T09:48:39;45.70;;;43.10;;
18274;SDS011;19470;49.322;7.218;2022-12-20T09:51:13;42.42;;;40.08;;
18274;SDS011;19470;49.322;7.218;2022-12-20T09:53:54;46.55;;;43.80;;
18274;SDS011;19470;49.322;7.218;2022-12-20T09:56:31;80.18;;;75.38;;
18274;SDS011;19470;49.322;7.218;2022-12-20T09:59:02;61.28;;;57.38;;
18274;SDS011;19470;49.322;7.218;2022-12-20T10:01:30;43.45;;;40.80;;
18274;SDS011;19470;49.322;7.218;2022-12-20T10:04:02;56.45;;;53.35;;
18274;SDS011;19470;49.322;7.218;2022-12-20T10:06:39;30.08;;;28.02;;
18274;SDS011;19470;49.322;7.218;2022-12-20T10:09:25;36.05;;;33.65;;
18274;SDS011;19470;49.322;7.218;2022-12-20T10:12:08;46.85;;;44.00;;
18274;SDS011;19470;49.322;7.218;2022-12-20T10:14:46;95.72;;;90.18;;
18274;SDS011;19470;49.322;7.218;2022-12-20T10:17:26;72.05;;;67.32;;
18274;SDS011;19470;49.322;7.218;2022-12-20T10:20:16;33.03;;;30.77;;
18274;SDS011;19470;49.322;7.218;2022-12-20T10:22:51;95.20;;;89.00;;
18274;SDS011;19470;49.322;7.218;2022-12-20T10:25:28;53.92;;;50.63;;
18274;SDS011;19470;49.322;7.218;2022-12-20T10:27:56;29.25;;;27.38;;
18274;SDS011;19470;49.322;7.218;2022-12-20T10:30:26;61.58;;;57.97;;
18274;SDS011;19470;49.322;7.218;2022-12-20T10:32:54;26.85;;;25.20;;
18274;SDS011;19470;49.322;7.218;2022-12-20T10:35:24;26.40;;;24.60;;
18274;SDS011;19470;49.322;7.218;2022-12-20T10:37:57;29.35;;;27.20;;
18274;SDS011;19470;49.322;7.218;2022-12-20T10:40:28;27.85;;;25.98;;
18274;SDS011;19470;49.322;7.218;2022-12-20T10:42:55;28.77;;;26.95;;
18274;SDS011;19470;49.322;7.218;2022-12-20T10:45:27;44.00;;;41.45;;
18274;SDS011;19470;49.322;7.218;2022-12-20T10:48:00;45.45;;;42.72;;
18274;SDS011;19470;49.322;7.218;2022-12-20T10:50:28;23.27;;;21.77;;
18274;SDS011;19470;49.322;7.218;2022-12-20T10:53:03;31.02;;;29.27;;
18274;SDS011;19470;49.322;7.218;2022-12-20T10:55:44;23.90;;;22.38;;
18274;SDS011;19470;49.322;7.218;2022-12-20T10:58:12;16.90;;;15.70;;
18274;SDS011;19470;49.322;7.218;2022-12-20T11:00:41;24.02;;;22.45;;
18274;SDS011;19470;49.322;7.218;2022-12-20T11:03:13;55.05;;;51.83;;
18274;SDS011;19470;49.322;7.218;2022-12-20T11:05:55;25.88;;;24.35;;
18274;SDS011;19470;49.322;7.218;2022-12-20T11:08:25;14.13;;;13.30;;
18274;SDS011;19470;49.322;7.218;2022-12-20T11:11:08;18.05;;;16.50;;
18274;SDS011;19470;49.322;7.218;2022-12-20T11:13:37;18.42;;;17.15;;
18274;SDS011;19470;49.322;7.218;2022-12-20T11:16:04;20.45;;;19.08;;
18274;SDS011;19470;49.322;7.218;2022-12-20T11:18:36;24.63;;;22.98;;
18274;SDS011;19470;49.322;7.218;2022-12-20T11:21:11;13.80;;;12.95;;
18274;SDS011;19470;49.322;7.218;2022-12-20T11:23:50;69.88;;;65.50;;
18274;SDS011;19470;49.322;7.218;2022-12-20T11:26:27;75.45;;;70.07;;
18274;SDS011;19470;49.322;7.218;2022-12-20T11:29:12;18.23;;;17.02;;
18274;SDS011;19470;49.322;7.218;2022-12-20T11:31:50;14.30;;;13.02;;
18274;SDS011;19470;49.322;7.218;2022-12-20T11:34:27;29.02;;;27.13;;
18274;SDS011;19470;49.322;7.218;2022-12-20T11:37:10;68.63;;;64.30;;
18274;SDS011;19470;49.322;7.218;2022-12-20T11:39:47;10.88;;;9.85;;
18274;SDS011;19470;49.322;7.218;2022-12-20T11:42:30;17.85;;;16.52;;
18274;SDS011;19470;49.322;7.218;2022-12-20T11:45:11;23.55;;;22.20;;
18274;SDS011;19470;49.322;7.218;2022-12-20T11:47:48;55.65;;;52.33;;
18274;SDS011;19470;49.322;7.218;2022-12-20T11:50:33;37.40;;;35.22;;
18274;SDS011;19470;49.322;7.218;2022-12-20T11:53:07;24.13;;;22.58;;
18274;SDS011;19470;49.322;7.218;2022-12-20T11:55:43;45.20;;;42.38;;
18274;SDS011;19470;49.322;7.218;2022-12-20T11:58:15;72.78;;;68.90;;
18274;SDS011;19470;49.322;7.218;2022-12-20T12:00:46;107.40;;;102.05;;
18274;SDS011;19470;49.322;7.218;2022-12-20T12:03:20;157.95;;;150.20;;
18274;SDS011;19470;49.322;7.218;2022-12-20T12:05:53;222.95;;;211.80;;
18274;SDS011;19470;49.322;7.218;2022-12-20T12:08:24;176.13;;;167.35;;
18274;SDS011;19470;49.322;7.218;2022-12-20T12:10:57;146.48;;;139.40;;
18274;SDS011;19470;49.322;7.218;2022-12-20T12:13:27;104.90;;;99.88;;
18274;SDS011;19470;49.322;7.218;2022-12-20T12:15:57;80.22;;;76.18;;
18274;SDS011;19470;49.322;7.218;2022-12-20T12:18:30;32.70;;;30.90;;
18274;SDS011;19470;49.322;7.218;2022-12-20T12:21:00;20.00;;;18.88;;
18274;SDS011;19470;49.322;7.218;2022-12-20T12:23:34;8.15;;;7.65;;
18274;SDS011;19470;49.322;7.218;2022-12-20T12:26:11;4.78;;;4.20;;
18274;SDS011;19470;49.322;7.218;2022-12-20T12:28:40;26.02;;;24.17;;
18274;SDS011;19470;49.322;7.218;2022-12-20T12:31:07;5.20;;;2.95;;
18274;SDS011;19470;49.322;7.218;2022-12-20T12:33:40;21.92;;;20.63;;
18274;SDS011;19470;49.322;7.218;2022-12-20T12:36:15;12.95;;;11.98;;
18274;SDS011;19470;49.322;7.218;2022-12-20T12:45:00;5.82;;;4.78;;
18274;SDS011;19470;49.322;7.218;2022-12-20T12:47:33;7.80;;;7.10;;
18274;SDS011;19470;49.322;7.218;2022-12-20T12:50:05;5.43;;;1.77;;
18274;SDS011;19470;49.322;7.218;2022-12-20T12:52:42;3.80;;;1.60;;
18274;SDS011;19470;49.322;7.218;2022-12-20T12:55:33;2.58;;;1.50;;
18274;SDS011;19470;49.322;7.218;2022-12-20T12:58:12;4.03;;;1.90;;
18274;SDS011;19470;49.322;7.218;2022-12-20T13:00:47;3.53;;;1.50;;
18274;SDS011;19470;49.322;7.218;2022-12-20T13:03:15;2.95;;;1.77;;
18274;SDS011;19470;49.322;7.218;2022-12-20T13:09:10;2.53;;;2.05;;
18274;SDS011;19470;49.322;7.218;2022-12-20T13:11:44;3.70;;;3.10;;
18274;SDS011;19470;49.322;7.218;2022-12-20T13:20:15;2.70;;;2.08;;
18274;SDS011;19470;49.322;7.218;2022-12-20T13:25:31;3.80;;;1.60;;
18274;SDS011;19470;49.322;7.218;2022-12-20T13:34:00;3.92;;;1.70;;
18274;SDS011;19470;49.322;7.218;2022-12-20T13:36:29;2.10;;;1.33;;
18274;SDS011;19470;49.322;7.218;2022-12-20T13:39:02;3.78;;;1.52;;
18274;SDS011;19470;49.322;7.218;2022-12-20T13:41:45;2.97;;;1.75;;
18274;SDS011;19470;49.322;7.218;2022-12-20T13:50:26;4.20;;;1.48;;
18274;SDS011;19470;49.322;7.218;2022-12-20T13:52:59;1.90;;;1.42;;
18274;SDS011;19470;49.322;7.218;2022-12-20T13:55:31;64.20;;;60.88;;
18274;SDS011;19470;49.322;7.218;2022-12-20T13:58:08;4.82;;;1.80;;
18274;SDS011;19470;49.322;7.218;2022-12-20T14:00:37;2.72;;;1.45;;
18274;SDS011;19470;49.322;7.218;2022-12-20T14:03:06;2.35;;;1.70;;
18274;SDS011;19470;49.322;7.218;2022-12-20T14:05:44;3.03;;;1.42;;
18274;SDS011;19470;49.322;7.218;2022-12-20T14:08:12;3.75;;;1.42;;
18274;SDS011;19470;49.322;7.218;2022-12-20T14:10:41;2.95;;;2.05;;
18274;SDS011;19470;49.322;7.218;2022-12-20T14:16:30;2.88;;;1.40;;
18274;SDS011;19470;49.322;7.218;2022-12-20T14:19:01;2.97;;;1.63;;
18274;SDS011;19470;49.322;7.218;2022-12-20T14:21:31;3.50;;;1.42;;
18274;SDS011;19470;49.322;7.218;2022-12-20T14:24:01;1.90;;;1.58;;
18274;SDS011;19470;49.322;7.218;2022-12-20T14:26:29;3.53;;;1.63;;
18274;SDS011;19470;49.322;7.218;2022-12-20T14:29:01;2.15;;;1.65;;
18274;SDS011;19470;49.322;7.218;2022-12-20T14:31:36;2.72;;;1.67;;
18274;SDS011;19470;49.322;7.218;2022-12-20T14:34:12;3.72;;;1.67;;
18274;SDS011;19470;49.322;7.218;2022-12-20T14:36:45;4.53;;;1.77;;
18274;SDS011;19470;49.322;7.218;2022-12-20T14:39:20;2.78;;;1.40;;
18274;SDS011;19470;49.322;7.218;2022-12-20T14:41:54;6.90;;;1.70;;
18274;SDS011;19470;49.322;7.218;2022-12-20T14:44:22;2.20;;;1.38;;
18274;SDS011;19470;49.322;7.218;2022-12-20T14:46:51;3.67;;;1.85;;
18274;SDS011;19470;49.322;7.218;2022-12-20T14:49:21;2.60;;;1.70;;
18274;SDS011;19470;49.322;7.218;2022-12-20T14:51:54;3.72;;;1.73;;
18274;SDS011;19470;49.322;7.218;2022-12-20T14:54:31;4.05;;;1.60;;
18274;SDS011;19470;49.322;7.218;2022-12-20T14:56:58;2.63;;;1.52;;
18274;SDS011;19470;49.322;7.218;2022-12-20T14:59:25;4.38;;;1.73;;
18274;SDS011;19470;49.322;7.218;2022-12-20T15:01:53;2.95;;;1.48;;
18274;SDS011;19470;49.322;7.218;2022-12-20T15:04:22;3.08;;;1.80;;
18274;SDS011;19470;49.322;7.218;2022-12-20T15:06:51;3.20;;;1.50;;
18274;SDS011;19470;49.322;7.218;2022-12-20T15:09:18;2.30;;;1.30;;
18274;SDS011;19470;49.322;7.218;2022-12-20T15:11:45;3.97;;;1.55;;
18274;SDS011;19470;49.322;7.218;2022-12-20T15:14:18;2.28;;;1.40;;
18274;SDS011;19470;49.322;7.218;2022-12-20T15:16:51;4.25;;;1.52;;
18274;SDS011;19470;49.322;7.218;2022-12-20T15:19:17;3.97;;;1.20;;
18274;SDS011;19470;49.322;7.218;2022-12-20T15:21:44;2.78;;;1.50;;
18274;SDS011;19470;49.322;7.218;2022-12-20T15:24:13;4.85;;;1.90;;
18274;SDS011;19470;49.322;7.218;2022-12-20T15:26:42;3.83;;;1.48;;
18274;SDS011;19470;49.322;7.218;2022-12-20T15:29:11;3.03;;;1.65;;
18274;SDS011;19470;49.322;7.218;2022-12-20T15:31:41;3.97;;;1.60;;
18274;SDS011;19470;49.322;7.218;2022-12-20T15:34:10;3.47;;;1.60;;